Time;durP1;ratioP1;P1;durP2;ratioP2;P2;SDS_P1;SDS_P2;PMS_P1;PMS_P2;Temp;Humidity;BMP_temperature;BMP_pressure;BME280_temperature;BME280_humidity;BME280_pressure;Samples;Min_cycle;Max_cycle;Signal;HPM_P1;HPM_P2
2022/12/05 00:02:28;;;;;;;8.60;4.67;;;;;;;-6.56;54.67;103211.44;1811964;79;21235;-59
2022/12/05 00:05:56;;;;;;;8.38;4.58;;;;;;;-6.59;54.70;103195.45;1812615;79;21298;-59
2022/12/05 00:09:09;;;;;;;7.42;4.17;;;;;;;-6.60;54.75;103201.25;1791600;78;21188;-58
2022/12/05 00:12:22;;;;;;;9.05;4.20;;;;;;;-6.63;54.73;103195.89;1809928;79;21183;-58
2022/12/05 00:15:58;;;;;;;9.85;4.03;;;;;;;-6.68;54.66;103190.13;1794822;79;21302;-59
2022/12/05 00:19:35;;;;;;;8.55;4.45;;;;;;;-6.72;54.70;103183.91;1812358;78;21354;-59
2022/12/05 00:23:06;;;;;;;8.43;5.15;;;;;;;-6.72;54.73;103187.00;1797249;78;21707;-59
2022/12/05 00:27:03;;;;;;;11.00;5.70;;;;;;;-6.80;54.66;103183.01;1812267;79;21294;-58
2022/12/05 00:31:06;;;;;;;9.15;4.75;;;;;;;-6.91;54.64;103190.56;1796821;79;21318;-59
2022/12/05 00:34:30;;;;;;;10.28;5.20;;;;;;;-7.05;54.64;103188.29;1812298;78;21270;-58
2022/12/05 00:37:57;;;;;;;7.15;4.33;;;;;;;-7.00;54.82;103179.88;1882752;76;23023;-58
2022/12/05 00:41:39;;;;;;;8.23;4.33;;;;;;;-7.04;54.94;103178.97;1800274;78;21305;-58
2022/12/05 00:44:59;;;;;;;6.87;3.75;;;;;;;-6.98;55.04;103183.00;1779006;79;22424;-58
2022/12/05 00:48:26;;;;;;;8.30;4.12;;;;;;;-6.94;55.10;103173.22;1777826;78;21408;-59
2022/12/05 00:51:48;;;;;;;7.22;4.15;;;;;;;-6.89;55.16;103179.45;1810323;79;21215;-58
2022/12/05 00:55:04;;;;;;;8.90;4.30;;;;;;;-6.87;55.14;103177.69;1796965;79;21175;-57
2022/12/05 00:58:23;;;;;;;6.45;3.95;;;;;;;-6.85;55.14;103172.80;1812395;78;21330;-57
2022/12/05 01:01:48;;;;;;;7.25;4.10;;;;;;;-6.83;55.10;103176.79;1809568;79;21757;-58
2022/12/05 01:04:59;;;;;;;8.75;4.72;;;;;;;-6.85;55.11;103173.27;1812377;78;21282;-57
2022/12/05 01:08:17;;;;;;;8.05;3.83;;;;;;;-6.84;55.12;103167.94;1777714;78;21712;-57
2022/12/05 01:11:34;;;;;;;7.17;4.37;;;;;;;-6.84;55.17;103173.27;1794194;79;21318;-58
2022/12/05 01:15:00;;;;;;;7.20;4.22;;;;;;;-6.87;55.11;103169.70;1806979;78;21678;-57
2022/12/05 01:18:45;;;;;;;7.08;4.28;;;;;;;-6.90;55.15;103165.70;1810163;78;22336;-57
2022/12/05 01:22:02;;;;;;;8.10;4.00;;;;;;;-6.89;55.17;103164.80;1808645;78;21167;-58
2022/12/05 01:25:32;;;;;;;10.80;4.62;;;;;;;-6.95;55.05;103159.48;1793485;79;21163;-58
2022/12/05 01:28:47;;;;;;;8.65;4.55;;;;;;;-7.02;55.07;103160.34;1812291;78;21215;-59
2022/12/05 01:32:06;;;;;;;8.53;4.87;;;;;;;-7.00;55.21;103168.80;1812089;79;21124;-57
2022/12/05 01:35:27;;;;;;;6.55;3.80;;;;;;;-6.99;55.27;103171.89;1811868;79;21405;-58
2022/12/05 01:39:14;;;;;;;8.95;4.28;;;;;;;-6.98;55.27;103172.36;1798270;78;21184;-59
2022/12/05 01:43:13;;;;;;;8.38;4.53;;;;;;;-6.98;55.27;103171.45;1788619;78;21184;-57
2022/12/05 01:46:51;;;;;;;8.55;4.85;;;;;;;-6.99;55.31;103163.04;1802095;79;21322;-59
2022/12/05 01:50:45;;;;;;;9.43;5.17;;;;;;;-6.96;55.41;103169.70;1796572;79;21196;-58
2022/12/05 01:54:18;;;;;;;8.38;4.62;;;;;;;-6.96;55.35;103167.03;1800372;78;21204;-58
2022/12/05 01:58:06;;;;;;;7.17;4.95;;;;;;;-6.98;55.33;103167.47;1800959;78;21951;-58
2022/12/05 02:01:42;;;;;;;11.50;4.97;;;;;;;-7.01;55.37;103169.70;1785054;79;21431;-58
2022/12/05 02:05:11;;;;;;;7.75;4.03;;;;;;;-7.02;55.37;103157.69;1803554;78;21176;-58
2022/12/05 02:08:38;;;;;;;12.82;5.37;;;;;;;-7.03;55.38;103173.22;1801337;78;21212;-57
2022/12/05 02:12:05;;;;;;;7.25;4.25;;;;;;;-7.04;55.38;103162.14;1785160;79;21164;-58
2022/12/05 02:15:41;;;;;;;9.73;4.65;;;;;;;-7.05;55.40;103162.58;1804499;79;21263;-57
2022/12/05 02:19:17;;;;;;;8.30;4.90;;;;;;;-7.07;55.43;103161.67;1801048;78;21716;-57
2022/12/05 02:23:23;;;;;;;7.40;3.92;;;;;;;-7.09;55.38;103161.23;1804830;78;21855;-57
2022/12/05 02:26:58;;;;;;;9.07;4.53;;;;;;;-7.14;55.37;103158.58;1779468;79;21314;-57
2022/12/05 02:30:20;;;;;;;10.43;4.47;;;;;;;-7.19;55.41;103160.77;1801343;78;21298;-57
2022/12/05 02:34:05;;;;;;;11.97;4.65;;;;;;;-7.21;55.46;103150.12;1799401;78;21185;-59
2022/12/05 02:37:55;;;;;;;7.78;4.40;;;;;;;-7.22;55.59;103147.45;1799809;78;21227;-58
2022/12/05 02:41:23;;;;;;;8.30;4.20;;;;;;;-7.22;55.59;103140.80;1757511;80;21338;-58
2022/12/05 02:44:59;;;;;;;9.75;4.75;;;;;;;-7.21;55.64;103146.56;1757238;80;21258;-57
2022/12/05 02:48:21;;;;;;;10.18;4.70;;;;;;;-7.17;55.68;103147.03;1727645;80;21204;-58
2022/12/05 02:51:36;;;;;;;7.28;4.55;;;;;;;-7.14;55.76;103145.70;1763740;80;21373;-57
2022/12/05 02:54:53;;;;;;;7.15;3.83;;;;;;;-7.12;55.79;103142.14;1757480;80;21728;-57
2022/12/05 02:58:18;;;;;;;8.93;4.40;;;;;;;-7.10;55.82;103145.70;1756885;80;21712;-57
2022/12/05 03:01:46;;;;;;;10.72;4.33;;;;;;;-7.09;55.79;103143.94;1757073;81;21152;-58
2022/12/05 03:05:24;;;;;;;7.28;4.20;;;;;;;-7.10;55.95;103150.16;1742914;80;21258;-58
2022/12/05 03:08:51;;;;;;;7.90;4.00;;;;;;;-7.18;55.74;103144.80;1864532;76;22296;-58
2022/12/05 03:12:31;;;;;;;7.30;3.62;;;;;;;-7.18;55.74;103144.80;1805728;79;21327;-59
2022/12/05 03:15:53;;;;;;;11.20;4.37;;;;;;;-7.13;55.93;103150.12;1805262;79;21165;-58
2022/12/05 03:19:29;;;;;;;9.60;4.05;;;;;;;-7.12;55.84;103145.27;1788127;79;21366;-57
2022/12/05 03:23:07;;;;;;;7.67;4.35;;;;;;;-7.14;55.72;103145.70;1804704;79;21177;-57
2022/12/05 03:26:56;;;;;;;7.57;3.83;;;;;;;-7.14;55.79;103145.70;1804785;79;21331;-57
2022/12/05 03:30:44;;;;;;;7.35;4.28;;;;;;;-7.15;55.90;103143.94;1804699;79;21482;-59
2022/12/05 03:34:08;;;;;;;7.22;4.42;;;;;;;-7.15;55.88;103142.61;1782011;79;21307;-58
2022/12/05 03:37:43;;;;;;;8.88;3.75;;;;;;;-7.12;55.93;103144.80;1805316;79;21224;-58
2022/12/05 03:41:34;;;;;;;7.80;3.80;;;;;;;-7.15;55.80;103138.15;1803926;79;21296;-57
2022/12/05 03:45:08;;;;;;;6.58;4.37;;;;;;;-7.18;55.72;103151.91;1848375;76;22324;-58
2022/12/05 03:49:06;;;;;;;19.12;8.00;;;;;;;-7.31;55.69;103147.45;1805465;79;21402;-57
2022/12/05 03:52:43;;;;;;;9.78;5.53;;;;;;;-7.31;55.88;103142.13;1791510;79;21196;-58
2022/12/05 03:56:27;;;;;;;9.00;4.12;;;;;;;-7.28;55.96;103148.34;1804662;79;21362;-58
2022/12/05 03:59:48;;;;;;;6.08;4.03;;;;;;;-7.26;55.97;103148.34;1804189;79;21263;-58
2022/12/05 04:03:21;;;;;;;9.48;4.00;;;;;;;-7.25;55.99;103146.13;1790421;79;21334;-58
2022/12/05 04:06:47;;;;;;;6.72;4.30;;;;;;;-7.25;56.03;103135.48;1772899;81;21891;-58
2022/12/05 04:10:15;;;;;;;10.23;3.95;;;;;;;-7.22;56.01;103128.83;1754422;80;21216;-57
2022/12/05 04:13:57;;;;;;;9.25;3.70;;;;;;;-7.22;56.01;103128.83;1769461;80;21291;-58
2022/12/05 04:17:22;;;;;;;6.15;3.33;;;;;;;-7.21;56.15;103130.16;1773035;80;21240;-58
2022/12/05 04:28:37;;;;;;;14.30;6.60;;;;;;;-7.35;56.07;103131.01;1773490;80;21852;-58
2022/12/05 04:32:06;;;;;;;12.13;5.67;;;;;;;-7.35;56.07;103131.01;1756644;80;21220;-58
2022/12/05 04:35:36;;;;;;;11.05;5.20;;;;;;;-7.35;56.15;103134.56;1771886;80;21208;-57
2022/12/05 04:39:08;;;;;;;8.68;4.05;;;;;;;-7.33;56.16;103131.48;1789943;79;21346;-58
2022/12/05 04:42:29;;;;;;;9.00;4.80;;;;;;;-7.31;56.20;103130.15;1770375;80;21188;-57
2022/12/05 04:45:45;;;;;;;11.00;4.90;;;;;;;-7.35;56.16;103127.02;1722885;82;21772;-58
2022/12/05 04:49:09;;;;;;;9.50;5.03;;;;;;;-7.36;56.25;103123.49;1738019;82;21253;-56
2022/12/05 04:52:23;;;;;;;14.53;4.42;;;;;;;-7.36;56.30;103132.80;1737563;82;21367;-56
2022/12/05 04:55:42;;;;;;;10.85;4.47;;;;;;;-7.36;56.25;103125.25;1737027;82;21208;-57
2022/12/05 04:58:59;;;;;;;15.70;7.50;;;;;;;-7.36;56.33;103113.28;1722563;82;21578;-56
2022/12/05 05:02:21;;;;;;;12.40;5.80;;;;;;;-7.39;56.20;103113.28;1717943;82;21204;-58
2022/12/05 05:05:46;;;;;;;10.03;5.70;;;;;;;-7.39;56.20;103113.28;1721073;82;21184;-58
2022/12/05 05:09:04;;;;;;;7.55;4.37;;;;;;;-7.38;56.18;103117.70;1736422;82;21251;-59
2022/12/05 05:12:33;;;;;;;9.28;5.15;;;;;;;-7.40;56.22;103111.52;1736845;82;21725;-58
2022/12/05 05:15:55;;;;;;;19.42;5.85;;;;;;;-7.42;56.25;103111.95;1737463;82;21281;-58
2022/12/05 05:19:13;;;;;;;14.28;6.70;;;;;;;-7.42;56.19;103106.62;1839098;76;22303;-58
2022/12/05 05:22:40;;;;;;;15.20;7.70;;;;;;;-7.53;56.13;103108.37;1771965;81;21367;-58
2022/12/05 05:26:12;;;;;;;20.05;7.08;;;;;;;-7.53;56.13;103120.34;1683247;83;21246;-58
2022/12/05 05:29:40;;;;;;;17.10;8.05;;;;;;;-7.57;56.28;103114.13;1754088;80;21245;-56
2022/12/05 05:33:15;;;;;;;29.12;11.05;;;;;;;-7.54;56.25;103121.20;1761961;79;21770;-56
2022/12/05 05:36:38;;;;;;;14.73;7.72;;;;;;;-7.59;56.25;103118.53;1764862;79;21170;-56
2022/12/05 05:50:46;;;;;;;13.90;7.30;;;;;;;-7.55;56.39;103130.08;1827963;76;28125;-58
2022/12/05 05:54:02;;;;;;;18.30;8.65;;;;;;;-7.53;56.35;103125.20;1752956;78;21176;-55
2022/12/05 05:57:57;;;;;;;10.58;5.03;;;;;;;-7.48;56.36;103127.44;1783206;80;21155;-57
2022/12/05 06:01:44;;;;;;;7.62;4.25;;;;;;;-7.44;56.40;103124.34;1748667;82;21171;-58
2022/12/05 06:09:21;;;;;;;13.28;5.50;;;;;;;-7.37;56.39;103135.46;1727765;82;21237;-63
2022/12/05 06:13:18;;;;;;;9.75;4.50;;;;;;;-7.43;56.32;103129.67;1726431;81;22112;-62
2022/12/05 06:16:53;;;;;;;8.73;4.42;;;;;;;-7.41;56.51;103130.57;1662416;86;21212;-62
2022/12/05 06:20:10;;;;;;;10.88;4.75;;;;;;;-7.33;56.55;103135.91;1691536;80;21909;-60
2022/12/05 06:23:33;;;;;;;11.38;5.05;;;;;;;-7.27;56.74;103124.84;1685157;83;21338;-62
2022/12/05 06:26:51;;;;;;;7.95;4.60;;;;;;;-7.27;56.74;103124.84;1678202;84;21252;-61
2022/12/05 06:45:52;;;;;;;17.40;6.75;;;;;;;-7.07;56.63;103124.87;1870837;76;22220;-61
2022/12/05 07:03:40;;;;;;;12.23;5.60;;;;;;;-6.79;56.87;103125.33;1778664;78;21580;-62
2022/12/05 07:07:05;;;;;;;11.10;4.65;;;;;;;-6.62;56.97;103112.89;1717130;78;21832;-62
2022/12/05 07:10:30;;;;;;;16.73;5.95;;;;;;;-6.62;56.97;103112.89;1701389;79;21376;-62
2022/12/05 07:14:10;;;;;;;14.35;5.55;;;;;;;-6.41;56.93;103116.87;1848451;75;22349;-62
2022/12/05 07:17:28;;;;;;;11.40;5.12;;;;;;;-6.42;56.88;103122.63;1800146;77;21333;-63
2022/12/05 07:21:08;;;;;;;11.12;4.65;;;;;;;-6.36;56.85;103124.41;1776157;77;21452;-64
2022/12/05 07:24:18;;;;;;;9.98;4.92;;;;;;;-6.34;56.78;103111.95;1773586;76;21441;-64
2022/12/05 07:27:26;;;;;;;11.35;5.83;;;;;;;-6.28;56.82;103111.97;1775720;77;21220;-63
2022/12/05 07:30:38;;;;;;;11.55;4.85;;;;;;;-6.23;56.81;103104.81;1773767;77;21362;-62
2022/12/05 07:33:46;;;;;;;15.90;7.37;;;;;;;-6.22;56.82;103104.84;1776750;77;21236;-62
2022/12/05 07:51:32;;;;;;;8.33;4.72;;;;;;;-5.72;57.19;103105.08;1820292;76;23165;-64
2022/12/05 07:55:01;;;;;;;10.03;4.80;;;;;;;-5.69;57.16;103109.06;1775558;79;21179;-61
2022/12/05 07:58:24;;;;;;;12.45;3.80;;;;;;;-5.58;57.20;103099.22;1755480;79;21283;-62
2022/12/05 08:01:49;;;;;;;7.33;3.50;;;;;;;-5.52;57.18;103102.75;1747677;80;21244;-62
2022/12/05 08:05:06;;;;;;;15.68;5.53;;;;;;;-5.48;57.13;103106.26;1739485;79;21417;-64
2022/12/05 08:08:22;;;;;;;8.95;4.70;;;;;;;-5.46;57.06;103101.37;1731926;80;21231;-66
2022/12/05 08:12:08;;;;;;;9.85;5.78;;;;;;;-5.32;57.22;103095.94;1757142;80;21756;-63
2022/12/05 08:15:53;;;;;;;7.62;4.25;;;;;;;-5.24;57.12;103087.44;1737450;79;21223;-62
2022/12/05 08:19:24;;;;;;;9.38;4.65;;;;;;;-5.06;57.35;103077.97;1755144;80;21192;-60
2022/12/05 08:22:43;;;;;;;8.03;3.72;;;;;;;-4.92;57.32;103073.40;1728138;80;21411;-62
2022/12/05 08:26:15;;;;;;;12.93;4.72;;;;;;;-4.85;57.23;103069.32;1748395;80;21378;-63
2022/12/05 08:30:01;;;;;;;9.13;4.72;;;;;;;-4.72;57.33;103065.65;1705327;80;21258;-61
2022/12/05 08:33:11;;;;;;;9.85;4.33;;;;;;;-4.60;57.28;103063.31;1747639;80;21180;-62
2022/12/05 08:36:23;;;;;;;10.53;3.85;;;;;;;-4.47;57.33;103061.41;1761226;79;21221;-59
2022/12/05 08:39:35;;;;;;;7.87;3.42;;;;;;;-4.33;57.31;103053.68;1766889;79;21254;-61
2022/12/05 08:42:48;;;;;;;8.75;3.85;;;;;;;-4.29;57.25;103049.16;1726576;80;21354;-60
2022/12/05 08:46:00;;;;;;;17.92;7.97;;;;;;;-4.24;57.25;103049.55;1660663;83;21262;-65
2022/12/05 08:49:23;;;;;;;8.80;4.87;;;;;;;-4.22;57.13;103034.39;1725389;80;21841;-63
2022/12/05 08:52:42;;;;;;;7.90;4.12;;;;;;;-4.14;57.15;103032.95;1730377;80;21267;-62
2022/12/05 08:55:56;;;;;;;6.65;4.17;;;;;;;-4.04;57.25;103031.95;1732648;81;22004;-63
2022/12/05 08:59:08;;;;;;;8.63;3.70;;;;;;;-3.97;57.17;103025.16;1707336;81;21235;-63
2022/12/05 09:02:23;;;;;;;7.58;3.90;;;;;;;-3.92;57.15;103027.77;1743523;80;21863;-63
2022/12/05 09:05:39;;;;;;;8.75;4.30;;;;;;;-3.88;57.18;103019.67;1731684;80;21212;-61
2022/12/05 09:09:03;;;;;;;8.20;3.70;;;;;;;-3.78;57.23;103017.31;1669375;82;21224;-63
2022/12/05 09:12:49;;;;;;;10.70;5.47;;;;;;;-3.70;57.27;103015.86;1714517;80;21254;-62
2022/12/05 09:20:22;;;;;;;8.13;4.85;;;;;;;-3.51;57.22;103000.86;1716117;77;21220;-63
2022/12/05 09:24:09;;;;;;;9.75;5.00;;;;;;;-3.43;57.15;102990.92;1664937;83;21556;-62
2022/12/05 09:27:50;;;;;;;10.40;4.40;;;;;;;-3.39;57.04;102978.34;1642686;84;21903;-63
2022/12/05 09:31:13;;;;;;;13.72;4.72;;;;;;;-3.38;56.93;102975.64;1683540;83;21198;-62
2022/12/05 09:34:41;;;;;;;11.33;4.47;;;;;;;-3.36;56.98;102974.27;1697849;82;22065;-62
2022/12/05 09:37:55;;;;;;;8.98;4.35;;;;;;;-3.24;57.09;102972.31;1661326;82;21340;-62
2022/12/05 09:41:20;;;;;;;6.90;3.85;;;;;;;-3.17;57.04;102964.58;1686598;83;21595;-63
2022/12/05 09:45:24;;;;;;;8.58;4.05;;;;;;;-3.08;57.05;102972.92;1620996;83;21249;-63
2022/12/05 09:48:43;;;;;;;9.88;4.72;;;;;;;-2.98;57.00;102969.63;1644446;82;21267;-63
2022/12/05 09:52:01;;;;;;;10.00;3.50;;;;;;;-2.93;56.96;102958.38;1673501;82;21239;-63
2022/12/05 09:55:24;;;;;;;12.30;4.47;;;;;;;-2.89;56.94;102962.77;1630523;82;21269;-60
2022/12/05 10:05:30;;;;;;;11.48;4.67;;;;;;;-2.54;57.11;102949.13;1669939;82;21223;-62
2022/12/05 10:14:42;;;;;;;6.30;3.92;;;;;;;-2.26;56.88;102925.28;1621389;84;20297;-59
2022/12/05 10:18:58;;;;;;;9.20;4.53;;;;;;;-2.19;56.92;102914.37;1640352;85;21753;-62
2022/12/05 10:22:33;;;;;;;10.48;4.40;;;;;;;-2.19;56.76;102913.05;1638002;84;22008;-60
2022/12/05 10:25:39;;;;;;;10.10;4.55;;;;;;;-2.05;56.86;102906.05;1663378;83;21203;-58
2022/12/05 10:28:49;;;;;;;10.65;4.87;;;;;;;-1.95;56.85;102910.30;1669960;81;21305;-59
2022/12/05 10:35:01;;;;;;;6.72;3.15;;;;;;;-1.77;56.63;102905.38;1637539;83;21210;-59
2022/12/05 10:41:19;;;;;;;9.78;3.95;;;;;;;-1.70;56.63;102906.97;1665578;84;21561;-59
2022/12/05 10:44:42;;;;;;;6.87;4.03;;;;;;;-1.61;56.63;102900.06;1653448;81;21305;-59
2022/12/05 10:48:24;;;;;;;10.58;4.10;;;;;;;-1.52;56.56;102904.79;1657139;83;21314;-56
2022/12/05 10:56:34;;;;;;;7.37;3.95;;;;;;;-1.30;56.40;102898.81;1618834;86;21251;-57
2022/12/05 11:13:31;;;;;;;8.43;3.65;;;;;;;-0.73;56.30;102885.63;1700698;80;21298;31
2022/12/05 11:27:34;;;;;;;7.80;3.20;;;;;;;-0.58;56.25;102854.25;1783500;79;22895;-56
2022/12/05 11:30:45;;;;;;;9.08;3.45;;;;;;;-0.57;56.22;102850.16;1718824;81;21251;-58
2022/12/05 11:38:01;;;;;;;13.03;4.15;;;;;;;-0.39;56.21;102844.25;1725133;82;21318;-59
2022/12/05 11:41:35;;;;;;;11.15;6.45;;;;;;;-0.26;56.19;102839.37;1603184;88;21251;-59
2022/12/05 11:45:34;;;;;;;6.58;3.37;;;;;;;-0.15;56.17;102842.61;1642422;85;21279;-59
2022/12/05 11:49:21;;;;;;;;;;;;;;;-0.04;56.16;102835.08;1598961;88;21268;-59
2022/12/05 11:53:09;;;;;;;12.28;6.35;;;;;;;-0.02;55.96;102829.19;1599770;89;20257;-59
2022/12/05 11:56:44;;;;;;;10.32;4.15;;;;;;;0.03;55.91;102830.37;1608869;87;21588;-60
2022/12/05 12:00:12;;;;;;;7.33;4.00;;;;;;;0.09;55.91;102824.34;1604153;87;22225;-60
2022/12/05 12:04:12;;;;;;;7.60;4.62;;;;;;;0.06;55.73;102812.77;1607023;87;21298;-60
2022/12/05 12:08:17;;;;;;;15.32;4.05;;;;;;;0.02;55.70;102824.10;1617046;87;21279;-58
2022/12/05 12:12:01;;;;;;;7.72;3.42;;;;;;;0.07;55.75;102818.11;1608379;87;21325;-59
2022/12/05 12:15:50;;;;;;;16.90;7.00;;;;;;;0.13;55.70;102815.70;1580560;88;21359;-60
2022/12/05 12:19:36;;;;;;;11.68;5.90;;;;;;;0.10;55.68;102810.38;1576858;89;21295;-60
2022/12/05 12:23:04;;;;;;;17.73;8.78;;;;;;;0.00;55.48;102812.03;1583738;87;21262;-61
2022/12/05 12:26:46;;;;;;;14.33;6.62;;;;;;;-0.12;55.41;102812.90;1603337;87;21266;-61
2022/12/05 12:30:33;;;;;;;12.60;6.03;;;;;;;-0.20;55.40;102814.50;1602435;87;21322;-60
2022/12/05 12:38:20;;;;;;;15.00;6.72;;;;;;;-0.33;55.26;102806.84;1826550;74;22616;-60
2022/12/05 12:42:27;;;;;;;11.78;4.75;;;;;;;-0.47;55.24;102803.70;1792526;77;21338;-61
2022/12/05 12:54:19;;;;;;;12.00;7.17;;;;;;;-0.62;55.32;102806.86;1762004;77;21187;-56
2022/12/05 12:58:18;;;;;;;9.55;4.35;;;;;;;-0.67;55.27;102799.39;1720451;82;21201;-57
2022/12/05 13:02:07;;;;;;;6.70;3.67;;;;;;;-0.69;55.27;102799.89;1663232;83;21606;-57
2022/12/05 13:05:50;;;;;;;8.28;4.85;;;;;;;-0.74;55.21;102793.77;1702861;82;21266;-59
2022/12/05 13:09:57;;;;;;;12.47;3.92;;;;;;;-0.84;55.15;102788.26;1665177;83;21244;-62
2022/12/05 13:21:12;;;;;;;13.00;6.12;;;;;;;-1.11;54.99;102792.59;1684537;83;21352;-58
2022/12/05 13:24:40;;;;;;;8.80;4.45;;;;;;;-1.24;54.90;102788.97;1656113;82;21255;-57
2022/12/05 13:28:46;;;;;;;9.17;5.33;;;;;;;-1.35;54.86;102785.24;1678074;82;21522;-56
2022/12/05 13:49:30;;;;;;;31.55;12.98;;;;;;;-1.94;54.86;102786.80;1730290;82;21244;-58
2022/12/05 13:53:10;;;;;;;15.20;5.67;;;;;;;-2.01;54.83;102787.86;1838928;76;22827;-57
2022/12/05 13:57:18;;;;;;;9.83;5.17;;;;;;;-2.13;54.86;102790.86;1778675;79;21384;-58
2022/12/05 14:00:42;;;;;;;18.05;9.45;;;;;;;-2.20;54.82;102789.67;1763992;79;21371;-58
2022/12/05 14:04:45;;;;;;;14.20;5.97;;;;;;;-2.29;54.83;102786.77;1757872;80;21540;-59
2022/12/05 14:12:23;;;;;;;15.55;5.78;;;;;;;-2.45;54.84;102792.51;1665655;83;21687;-58
2022/12/05 14:16:22;;;;;;;9.68;4.90;;;;;;;-2.52;54.80;102795.78;1858970;75;22289;-59
2022/12/05 14:19:57;;;;;;;14.50;4.78;;;;;;;-2.62;54.80;102800.95;1803965;79;21732;-58
2022/12/05 14:23:27;;;;;;;17.25;8.23;;;;;;;-2.70;54.73;102798.89;1738926;81;21199;-59
2022/12/05 14:31:09;;;;;;;20.65;6.53;;;;;;;-2.82;54.76;102791.57;1779148;80;21234;-59
2022/12/05 14:34:56;;;;;;;17.55;6.78;;;;;;;-2.87;54.75;102795.66;1793872;77;21855;-59
2022/12/05 14:38:51;;;;;;;10.95;6.65;;;;;;;-2.92;54.70;102790.88;1799862;78;21242;-58
2022/12/05 14:42:45;;;;;;;17.12;6.47;;;;;;;-2.96;54.66;102788.27;1805088;79;21602;-58
2022/12/05 14:50:50;;;;;;;14.98;7.28;;;;;;;-3.09;54.63;102772.46;1809124;78;21420;-59
2022/12/05 14:54:35;;;;;;;15.63;7.25;;;;;;;-3.13;54.65;102777.91;1794762;78;21478;-57
2022/12/05 14:58:47;;;;;;;22.75;7.87;;;;;;;-3.18;54.64;102780.69;1809113;78;21353;-59
2022/12/05 15:02:29;;;;;;;;;;;;;;;-3.22;54.62;102780.79;1812673;79;21198;-59
2022/12/05 15:06:14;;;;;;;20.23;8.13;;;;;;;-3.27;54.63;102782.19;1662051;82;20224;-57
2022/12/05 15:10:22;;;;;;;25.48;11.38;;;;;;;-3.31;54.65;102783.18;1686748;83;21212;-57
2022/12/05 15:14:08;;;;;;;24.47;11.15;;;;;;;-3.33;54.62;102784.14;1656334;80;21213;-57
2022/12/05 15:17:29;;;;;;;26.60;9.63;;;;;;;-3.39;54.59;102777.53;1719801;83;21212;-57
2022/12/05 15:21:21;;;;;;;21.75;9.23;;;;;;;-3.44;54.58;102774.09;1697675;84;21218;-58
2022/12/05 15:24:55;;;;;;;20.45;9.35;;;;;;;-3.41;54.59;102774.02;1849211;76;22293;-58
2022/12/05 15:28:32;;;;;;;23.52;8.90;;;;;;;-3.49;54.59;102770.13;1757905;79;21256;-58
2022/12/05 15:42:22;;;;;;;15.05;7.85;;;;;;;-3.65;54.36;102759.76;1781718;77;22842;-58
2022/12/05 15:46:28;;;;;;;14.40;7.72;;;;;;;-3.76;54.39;102751.05;1703869;81;21602;-59
2022/12/05 15:49:45;;;;;;;18.45;8.70;;;;;;;-3.79;54.53;102750.62;1689814;80;21239;-58
2022/12/05 16:03:55;;;;;;;12.68;6.67;;;;;;;-3.80;54.55;102735.94;1845133;77;22303;-58
2022/12/05 16:07:18;;;;;;;21.35;8.45;;;;;;;-3.88;54.52;102736.09;1769856;80;21264;-59
2022/12/05 16:10:44;;;;;;;15.00;7.05;;;;;;;-3.90;54.49;102731.20;1773806;80;21401;-59
2022/12/05 16:14:56;;;;;;;12.03;5.97;;;;;;;-3.92;54.52;102733.05;1733547;82;21634;-58
2022/12/05 16:18:37;;;;;;;15.58;6.58;;;;;;;-3.86;54.53;102722.23;1874624;76;22817;-58
2022/12/05 16:22:32;;;;;;;14.95;6.62;;;;;;;-3.90;54.54;102720.98;1771009;78;21243;-59
2022/12/05 16:26:44;;;;;;;11.10;5.55;;;;;;;-3.90;54.55;102720.51;1810569;78;21156;-59
2022/12/05 16:30:41;;;;;;;10.98;5.40;;;;;;;-3.91;54.51;102720.53;1779755;80;21676;-59
2022/12/05 16:33:58;;;;;;;10.43;6.72;;;;;;;-3.90;54.50;102721.84;1779506;79;21986;-59
2022/12/05 17:30:28;;;;;;;9.43;4.15;;;;;;;-3.91;54.55;102719.20;1593388;84;21244;-59
2022/12/05 17:37:31;;;;;;;8.20;3.98;;;;;;;-4.31;54.29;102678.91;1767657;80;21227;-59
2022/12/05 17:41:13;;;;;;;9.28;3.87;;;;;;;-4.30;54.22;102690.49;1753150;82;21358;-58
2022/12/05 17:44:49;;;;;;;7.25;3.62;;;;;;;-4.29;54.30;102690.91;1753628;81;21208;-59
2022/12/05 17:48:21;;;;;;;7.83;4.03;;;;;;;-4.26;54.31;102685.50;1710351;82;21223;-58
2022/12/05 17:52:07;;;;;;;8.48;4.05;;;;;;;-4.27;54.22;102691.77;1753189;82;21730;-59
2022/12/05 17:55:47;;;;;;;12.73;5.40;;;;;;;-4.26;54.21;102686.84;1606780;88;21893;-59
2022/12/05 17:59:26;;;;;;;19.90;4.25;;;;;;;-4.20;54.27;102694.78;1621422;87;21587;-58
2022/12/05 18:03:24;;;;;;;8.35;3.95;;;;;;;-4.18;54.23;102702.30;1641922;86;21385;-59
2022/12/05 18:06:44;;;;;;;7.35;3.70;;;;;;;-4.15;54.14;102699.12;1875631;76;22258;-58
2022/12/05 18:10:13;;;;;;;8.23;3.90;;;;;;;-4.19;54.14;102700.55;1775574;80;21362;-59
2022/12/05 18:13:41;;;;;;;9.25;4.53;;;;;;;-4.22;54.02;102703.27;1799698;78;21697;-57
